Impacts TAF Board
For situational awareness. Not to be used for flight planning purposes.
IDs:

KBWI - Baltimore-Washington, MD, US

Issued at 1502 UTC 24 Sep 2018
Updated at 1700 UTC 24 Sep 2018
Potential Impact None Slight Moderate High
Time1654Z 24/17Z 24/18Z 24/19Z 24/20Z 24/21Z 24/22Z 24/23Z 25/00Z 25/01Z 25/02Z 25/03Z 25/04Z 25/05Z>>
Type OBS PRVL PRVL PRVL PRVL PRVL PRVL PRVL PRVL PRVL PRVL PRVL PRVL PRVL
VIS 10 5 5 5 5 5 5 5 3 3 3 3 3 3
CIG 16 16 16 16 16 16 16 16 8 8 8 8 8 8
Cover OVC OVC OVC OVC OVC OVC OVC OVC OVC OVC OVC OVC OVC OVC
FltCat MVFR MVFR MVFR MVFR MVFR MVFR MVFR MVFR IFR IFR IFR IFR IFR IFR
WX -- -RA -DZ BR -RA -DZ BR -RA -DZ BR -RA -DZ BR -RA -DZ BR -RA -DZ BR -RA -DZ BR -RA BR -RA BR -RA BR -RA BR -RA BR -RA BR
WDir 80 70 70 70 70 70 70 70 70 70 70 70 70 70
WSpd 16 10 10 10 10 10 10 10 11 11 11 11 11 11
WGst 23 -- -- -- -- -- -- -- 18 18 18 18 18 18
Raw TAF
KBWI 241502Z 2415/2518 07010KT 5SM -RADZ BR FEW007 OVC016
  FM250000 07011G18KT 3SM -RA BR OVC008
  FM250600 09009KT P6SM OVC008
  FM251200 12007KT 5SM -RA OVC008
  FM251700 17007KT P6SM -RA OVC015


Raw METAR
KBWI 241654Z 08016G23KT 10SM SCT009 BKN016 OVC033 19/17 A3036 RMK AO2 DZE48 SLP280 P0000 T01940167
KBWI 241554Z 08011KT 8SM -DZ FEW005 SCT009 OVC016 18/17 A3037 RMK AO2 DZB32 SLP282 P0000 T01830167
KBWI 241533Z 08012KT 6SM -DZ BR FU FEW003 BKN018 OVC026 19/17 A3036 RMK AO2 DZB32 FU FEW003 FU PLUME AT AP DRFTG W P0000 T01890167
KBWI 241454Z 08012KT 8SM FEW009 OVC016 18/16 A3037 RMK AO2 DZE04 SLP283 P0000 60001 T01830161 51015
KBWI 241404Z 06009KT 5SM BR SCT007 BKN016 OVC029 18/17 A3036 RMK AO2 DZE04 P0000 T01780167
KBWI 241354Z 07011KT 3SM -DZ BR BKN007 BKN015 OVC025 18/17 A3036 RMK AO2 SLP280 P0000 T01780167
KBWI 241351Z 06010KT 3SM -DZ BR BKN007 BKN015 OVC025 18/17 A3036 RMK AO2 P0000

METAR Board
Radar Display
Forecast Discussion
For situational awareness. Not to be used for flight planning purposes.